sensor_id;sensor_type;location;lat;lon;timestamp;pressure;altitude;pressure_sealevel;temperature;humidity
7824;BME280;3957;48.61947800;9.05303100;2023-08-06T00:00:58;95377.56;;;11.73;100.00
7824;BME280;3957;48.61947800;9.05303100;2023-08-06T00:02:00;95381.09;;;11.74;100.00
7824;BME280;3957;48.61947800;9.05303100;2023-08-06T00:03:01;95380.72;;;11.70;100.00
7824;BME280;3957;48.61947800;9.05303100;2023-08-06T00:04:03;95378.84;;;11.71;100.00
7824;BME280;3957;48.61947800;9.05303100;2023-08-06T00:05:05;95381.41;;;11.66;100.00
7824;BME280;3957;48.61947800;9.05303100;2023-08-06T00:06:06;95378.28;;;11.69;100.00
7824;BME280;3957;48.61947800;9.05303100;2023-08-06T00:07:08;95374.41;;;11.65;100.00
7824;BME280;3957;48.61947800;9.05303100;2023-08-06T00:08:09;95374.88;;;11.62;100.00
7824;BME280;3957;48.61947800;9.05303100;2023-08-06T00:09:11;95374.13;;;11.54;100.00
7824;BME280;3957;48.61947800;9.05303100;2023-08-06T00:10:13;95367.38;;;11.52;100.00
7824;BME280;3957;48.61947800;9.05303100;2023-08-06T00:11:15;95369.06;;;11.65;100.00
7824;BME280;3957;48.61947800;9.05303100;2023-08-06T00:12:17;95364.06;;;11.68;100.00
7824;BME280;3957;48.61947800;9.05303100;2023-08-06T00:13:19;95364.63;;;11.70;100.00
7824;BME280;3957;48.61947800;9.05303100;2023-08-06T00:14:20;95361.16;;;11.70;100.00
7824;BME280;3957;48.61947800;9.05303100;2023-08-06T00:15:22;95367.19;;;11.65;100.00
7824;BME280;3957;48.61947800;9.05303100;2023-08-06T00:16:23;95361.59;;;11.67;100.00
7824;BME280;3957;48.61947800;9.05303100;2023-08-06T00:17:25;95366.59;;;11.63;100.00
7824;BME280;3957;48.61947800;9.05303100;2023-08-06T00:18:27;95368.69;;;11.61;100.00
7824;BME280;3957;48.61947800;9.05303100;2023-08-06T00:19:28;95366.69;;;11.56;100.00
7824;BME280;3957;48.61947800;9.05303100;2023-08-06T00:20:30;95368.56;;;11.56;100.00
7824;BME280;3957;48.61947800;9.05303100;2023-08-06T00:21:31;95371.69;;;11.53;100.00
7824;BME280;3957;48.61947800;9.05303100;2023-08-06T00:22:34;95375.19;;;11.53;100.00
7824;BME280;3957;48.61947800;9.05303100;2023-08-06T00:23:35;95369.00;;;11.53;100.00
7824;BME280;3957;48.61947800;9.05303100;2023-08-06T00:24:37;95372.13;;;11.50;100.00
7824;BME280;3957;48.61947800;9.05303100;2023-08-06T00:25:39;95378.91;;;11.52;100.00
7824;BME280;3957;48.61947800;9.05303100;2023-08-06T00:26:40;95380.31;;;11.55;100.00
7824;BME280;3957;48.61947800;9.05303100;2023-08-06T00:27:42;95376.72;;;11.61;100.00
7824;BME280;3957;48.61947800;9.05303100;2023-08-06T00:28:43;95381.84;;;11.63;100.00
7824;BME280;3957;48.61947800;9.05303100;2023-08-06T00:29:45;95376.28;;;11.64;100.00
7824;BME280;3957;48.61947800;9.05303100;2023-08-06T00:30:46;95378.13;;;11.64;100.00
7824;BME280;3957;48.61947800;9.05303100;2023-08-06T00:31:48;95370.09;;;11.64;100.00
7824;BME280;3957;48.61947800;9.05303100;2023-08-06T00:32:49;95370.22;;;11.69;100.00
7824;BME280;3957;48.61947800;9.05303100;2023-08-06T00:33:51;95380.25;;;11.73;100.00
7824;BME280;3957;48.61947800;9.05303100;2023-08-06T00:34:52;95380.41;;;11.79;100.00
7824;BME280;3957;48.61947800;9.05303100;2023-08-06T00:35:54;95375.50;;;11.87;100.00
7824;BME280;3957;48.61947800;9.05303100;2023-08-06T00:36:55;95370.16;;;11.87;100.00
7824;BME280;3957;48.61947800;9.05303100;2023-08-06T00:37:57;95369.47;;;11.92;100.00
7824;BME280;3957;48.61947800;9.05303100;2023-08-06T00:38:58;95364.13;;;11.92;100.00
7824;BME280;3957;48.61947800;9.05303100;2023-08-06T00:40:00;95367.03;;;11.90;100.00
7824;BME280;3957;48.61947800;9.05303100;2023-08-06T00:41:01;95356.75;;;11.87;100.00
7824;BME280;3957;48.61947800;9.05303100;2023-08-06T00:42:03;95359.00;;;11.90;100.00
7824;BME280;3957;48.61947800;9.05303100;2023-08-06T00:43:05;95353.53;;;11.97;100.00
7824;BME280;3957;48.61947800;9.05303100;2023-08-06T00:44:06;95351.91;;;11.96;100.00
7824;BME280;3957;48.61947800;9.05303100;2023-08-06T00:45:08;95346.78;;;11.95;100.00
7824;BME280;3957;48.61947800;9.05303100;2023-08-06T00:46:10;95349.31;;;11.89;100.00
7824;BME280;3957;48.61947800;9.05303100;2023-08-06T00:47:11;95350.00;;;11.85;100.00
7824;BME280;3957;48.61947800;9.05303100;2023-08-06T00:48:14;95344.66;;;11.85;100.00
7824;BME280;3957;48.61947800;9.05303100;2023-08-06T00:49:15;95348.84;;;11.81;100.00
7824;BME280;3957;48.61947800;9.05303100;2023-08-06T00:50:17;95346.84;;;11.88;100.00
7824;BME280;3957;48.61947800;9.05303100;2023-08-06T00:51:19;95345.69;;;11.84;100.00
7824;BME280;3957;48.61947800;9.05303100;2023-08-06T00:52:21;95346.97;;;11.81;100.00
7824;BME280;3957;48.61947800;9.05303100;2023-08-06T00:53:23;95343.25;;;11.82;100.00
7824;BME280;3957;48.61947800;9.05303100;2023-08-06T00:54:27;95339.72;;;11.82;100.00
7824;BME280;3957;48.61947800;9.05303100;2023-08-06T00:55:29;95336.25;;;11.81;100.00
7824;BME280;3957;48.61947800;9.05303100;2023-08-06T00:56:33;95339.00;;;11.74;100.00
7824;BME280;3957;48.61947800;9.05303100;2023-08-06T00:57:37;95340.88;;;11.74;100.00
7824;BME280;3957;48.61947800;9.05303100;2023-08-06T00:58:39;95332.84;;;11.74;100.00
7824;BME280;3957;48.61947800;9.05303100;2023-08-06T00:59:40;95333.09;;;11.72;100.00
7824;BME280;3957;48.61947800;9.05303100;2023-08-06T01:00:42;95332.47;;;11.70;100.00
7824;BME280;3957;48.61947800;9.05303100;2023-08-06T01:01:45;95335.97;;;11.71;100.00
7824;BME280;3957;48.61947800;9.05303100;2023-08-06T01:02:48;95331.75;;;11.63;100.00
7824;BME280;3957;48.61947800;9.05303100;2023-08-06T01:03:50;95330.94;;;11.63;100.00
7824;BME280;3957;48.61947800;9.05303100;2023-08-06T01:04:52;95331.16;;;11.61;100.00
7824;BME280;3957;48.61947800;9.05303100;2023-08-06T01:05:54;95326.28;;;11.58;100.00
7824;BME280;3957;48.61947800;9.05303100;2023-08-06T01:07:25;95324.63;;;11.57;100.00
7824;BME280;3957;48.61947800;9.05303100;2023-08-06T01:08:56;95315.78;;;11.56;100.00
7824;BME280;3957;48.61947800;9.05303100;2023-08-06T01:10:23;95320.19;;;11.51;100.00
7824;BME280;3957;48.61947800;9.05303100;2023-08-06T01:11:41;95329.50;;;11.48;100.00
7824;BME280;3957;48.61947800;9.05303100;2023-08-06T01:13:23;95328.22;;;11.51;100.00
7824;BME280;3957;48.61947800;9.05303100;2023-08-06T01:14:31;95318.41;;;11.45;100.00
7824;BME280;3957;48.61947800;9.05303100;2023-08-06T01:15:42;95336.38;;;11.44;100.00
7824;BME280;3957;48.61947800;9.05303100;2023-08-06T01:16:45;95330.78;;;11.46;100.00
7824;BME280;3957;48.61947800;9.05303100;2023-08-06T01:17:48;95332.88;;;11.44;100.00
7824;BME280;3957;48.61947800;9.05303100;2023-08-06T01:18:50;95329.38;;;11.43;100.00
7824;BME280;3957;48.61947800;9.05303100;2023-08-06T01:19:52;95326.81;;;11.48;100.00
7824;BME280;3957;48.61947800;9.05303100;2023-08-06T01:20:53;95328.00;;;11.52;100.00
7824;BME280;3957;48.61947800;9.05303100;2023-08-06T01:21:55;95321.47;;;11.48;100.00
7824;BME280;3957;48.61947800;9.05303100;2023-08-06T01:22:57;95323.34;;;11.48;100.00
7824;BME280;3957;48.61947800;9.05303100;2023-08-06T01:23:58;95324.59;;;11.45;100.00
7824;BME280;3957;48.61947800;9.05303100;2023-08-06T01:25:00;95328.78;;;11.41;100.00
7824;BME280;3957;48.61947800;9.05303100;2023-08-06T01:27:38;95318.06;;;11.41;100.00
7824;BME280;3957;48.61947800;9.05303100;2023-08-06T01:29:06;95316.44;;;11.40;100.00
7824;BME280;3957;48.61947800;9.05303100;2023-08-06T01:30:12;95314.34;;;11.42;100.00
7824;BME280;3957;48.61947800;9.05303100;2023-08-06T01:31:27;95314.13;;;11.44;100.00
7824;BME280;3957;48.61947800;9.05303100;2023-08-06T01:32:31;95312.34;;;11.37;100.00
7824;BME280;3957;48.61947800;9.05303100;2023-08-06T01:33:34;95322.47;;;11.35;100.00
7824;BME280;3957;48.61947800;9.05303100;2023-08-06T01:34:39;95320.38;;;11.37;100.00
7824;BME280;3957;48.61947800;9.05303100;2023-08-06T01:35:42;95312.47;;;11.43;100.00
7824;BME280;3957;48.61947800;9.05303100;2023-08-06T01:36:44;95318.31;;;11.39;100.00
7824;BME280;3957;48.61947800;9.05303100;2023-08-06T01:37:47;95308.25;;;11.35;100.00
7824;BME280;3957;48.61947800;9.05303100;2023-08-06T01:38:51;95317.34;;;11.34;100.00
7824;BME280;3957;48.61947800;9.05303100;2023-08-06T01:39:53;95318.41;;;11.33;100.00
7824;BME280;3957;48.61947800;9.05303100;2023-08-06T01:40:55;95315.00;;;11.26;100.00
7824;BME280;3957;48.61947800;9.05303100;2023-08-06T01:41:56;95314.38;;;11.23;100.00
7824;BME280;3957;48.61947800;9.05303100;2023-08-06T01:42:58;95310.69;;;11.25;100.00
7824;BME280;3957;48.61947800;9.05303100;2023-08-06T01:44:00;95308.47;;;11.21;100.00
7824;BME280;3957;48.61947800;9.05303100;2023-08-06T01:45:01;95314.63;;;11.22;100.00
7824;BME280;3957;48.61947800;9.05303100;2023-08-06T01:46:03;95312.97;;;11.21;100.00
7824;BME280;3957;48.61947800;9.05303100;2023-08-06T01:47:05;95315.00;;;11.26;100.00
7824;BME280;3957;48.61947800;9.05303100;2023-08-06T01:48:07;95317.69;;;11.26;100.00
7824;BME280;3957;48.61947800;9.05303100;2023-08-06T01:49:08;95318.34;;;11.21;100.00
7824;BME280;3957;48.61947800;9.05303100;2023-08-06T01:50:10;95316.13;;;11.18;100.00
7824;BME280;3957;48.61947800;9.05303100;2023-08-06T01:51:12;95310.53;;;11.19;100.00
7824;BME280;3957;48.61947800;9.05303100;2023-08-06T01:52:13;95315.31;;;11.17;100.00
7824;BME280;3957;48.61947800;9.05303100;2023-08-06T01:53:15;95313.91;;;11.15;100.00
7824;BME280;3957;48.61947800;9.05303100;2023-08-06T01:54:16;95314.84;;;11.20;100.00
7824;BME280;3957;48.61947800;9.05303100;2023-08-06T01:55:18;95308.09;;;11.18;100.00
7824;BME280;3957;48.61947800;9.05303100;2023-08-06T01:56:20;95308.09;;;11.18;100.00
7824;BME280;3957;48.61947800;9.05303100;2023-08-06T01:57:22;95301.53;;;11.14;100.00
7824;BME280;3957;48.61947800;9.05303100;2023-08-06T01:58:24;95309.34;;;11.15;100.00
7824;BME280;3957;48.61947800;9.05303100;2023-08-06T01:59:25;95304.44;;;11.12;100.00
7824;BME280;3957;48.61947800;9.05303100;2023-08-06T02:00:27;95303.66;;;11.12;100.00
7824;BME280;3957;48.61947800;9.05303100;2023-08-06T02:01:30;95304.06;;;11.09;100.00
7824;BME280;3957;48.61947800;9.05303100;2023-08-06T02:02:31;95305.34;;;11.06;100.00
7824;BME280;3957;48.61947800;9.05303100;2023-08-06T02:03:33;95302.66;;;11.06;100.00
7824;BME280;3957;48.61947800;9.05303100;2023-08-06T02:04:34;95303.34;;;11.01;100.00
7824;BME280;3957;48.61947800;9.05303100;2023-08-06T02:05:36;95294.13;;;10.97;100.00
7824;BME280;3957;48.61947800;9.05303100;2023-08-06T02:06:38;95298.91;;;10.95;100.00
7824;BME280;3957;48.61947800;9.05303100;2023-08-06T02:07:41;95298.53;;;10.92;100.00
7824;BME280;3957;48.61947800;9.05303100;2023-08-06T02:08:43;95286.66;;;10.87;100.00
7824;BME280;3957;48.61947800;9.05303100;2023-08-06T02:09:44;95291.19;;;10.87;100.00
7824;BME280;3957;48.61947800;9.05303100;2023-08-06T02:10:46;95291.19;;;10.87;100.00
7824;BME280;3957;48.61947800;9.05303100;2023-08-06T02:11:48;95295.38;;;10.83;100.00
7824;BME280;3957;48.61947800;9.05303100;2023-08-06T02:12:49;95290.13;;;10.88;100.00
7824;BME280;3957;48.61947800;9.05303100;2023-08-06T02:13:51;95288.53;;;10.87;100.00
7824;BME280;3957;48.61947800;9.05303100;2023-08-06T02:14:53;95283.28;;;10.92;100.00
7824;BME280;3957;48.61947800;9.05303100;2023-08-06T02:15:54;95280.59;;;10.92;100.00
7824;BME280;3957;48.61947800;9.05303100;2023-08-06T02:16:56;95284.78;;;10.88;100.00
7824;BME280;3957;48.61947800;9.05303100;2023-08-06T02:17:59;95281.28;;;10.87;100.00
7824;BME280;3957;48.61947800;9.05303100;2023-08-06T02:19:01;95285.00;;;10.86;100.00
7824;BME280;3957;48.61947800;9.05303100;2023-08-06T02:20:03;95285.16;;;10.92;100.00
7824;BME280;3957;48.61947800;9.05303100;2023-08-06T02:21:04;95277.13;;;10.92;100.00
7824;BME280;3957;48.61947800;9.05303100;2023-08-06T02:22:06;95275.03;;;10.94;100.00
7824;BME280;3957;48.61947800;9.05303100;2023-08-06T02:23:08;95270.75;;;10.93;100.00
7824;BME280;3957;48.61947800;9.05303100;2023-08-06T02:24:10;95274.06;;;10.88;100.00
7824;BME280;3957;48.61947800;9.05303100;2023-08-06T02:25:11;95269.19;;;10.85;100.00
7824;BME280;3957;48.61947800;9.05303100;2023-08-06T02:26:13;95263.25;;;10.83;100.00
7824;BME280;3957;48.61947800;9.05303100;2023-08-06T02:27:14;95267.69;;;10.89;100.00
7824;BME280;3957;48.61947800;9.05303100;2023-08-06T02:28:16;95276.91;;;10.93;100.00
7824;BME280;3957;48.61947800;9.05303100;2023-08-06T02:29:18;95267.69;;;10.89;100.00
7824;BME280;3957;48.61947800;9.05303100;2023-08-06T02:30:19;95267.09;;;10.87;100.00
7824;BME280;3957;48.61947800;9.05303100;2023-08-06T02:31:21;95261.97;;;10.85;100.00
7824;BME280;3957;48.61947800;9.05303100;2023-08-06T02:32:22;95264.44;;;10.87;100.00
7824;BME280;3957;48.61947800;9.05303100;2023-08-06T02:33:24;95263.59;;;10.86;100.00
7824;BME280;3957;48.61947800;9.05303100;2023-08-06T02:34:25;95258.97;;;10.94;100.00
7824;BME280;3957;48.61947800;9.05303100;2023-08-06T02:35:27;95258.97;;;10.94;100.00
7824;BME280;3957;48.61947800;9.05303100;2023-08-06T02:36:28;95256.19;;;11.00;100.00
7824;BME280;3957;48.61947800;9.05303100;2023-08-06T02:37:34;95254.13;;;11.02;100.00
7824;BME280;3957;48.61947800;9.05303100;2023-08-06T02:38:35;95258.44;;;11.03;100.00
7824;BME280;3957;48.61947800;9.05303100;2023-08-06T02:39:37;95249.25;;;11.11;100.00
7824;BME280;3957;48.61947800;9.05303100;2023-08-06T02:40:47;95245.78;;;11.11;100.00
7824;BME280;3957;48.61947800;9.05303100;2023-08-06T02:41:48;95246.97;;;11.15;100.00
7824;BME280;3957;48.61947800;9.05303100;2023-08-06T02:42:50;95250.44;;;11.15;100.00
7824;BME280;3957;48.61947800;9.05303100;2023-08-06T02:43:52;95240.00;;;11.26;100.00
7824;BME280;3957;48.61947800;9.05303100;2023-08-06T02:44:54;95243.63;;;11.31;100.00
7824;BME280;3957;48.61947800;9.05303100;2023-08-06T02:45:59;95245.59;;;11.36;100.00
7824;BME280;3957;48.61947800;9.05303100;2023-08-06T02:47:01;95242.47;;;11.39;100.00
7824;BME280;3957;48.61947800;9.05303100;2023-08-06T02:48:04;95238.41;;;11.48;100.00
7824;BME280;3957;48.61947800;9.05303100;2023-08-06T02:49:06;95246.81;;;11.52;100.00
7824;BME280;3957;48.61947800;9.05303100;2023-08-06T02:50:08;95239.22;;;11.49;100.00
7824;BME280;3957;48.61947800;9.05303100;2023-08-06T02:51:09;95240.75;;;11.56;100.00
7824;BME280;3957;48.61947800;9.05303100;2023-08-06T02:52:11;95236.22;;;11.57;100.00
7824;BME280;3957;48.61947800;9.05303100;2023-08-06T02:53:13;95229.44;;;11.54;100.00
7824;BME280;3957;48.61947800;9.05303100;2023-08-06T02:54:14;95232.13;;;11.54;100.00
7824;BME280;3957;48.61947800;9.05303100;2023-08-06T02:55:16;95233.19;;;11.53;100.00
7824;BME280;3957;48.61947800;9.05303100;2023-08-06T02:56:20;95230.97;;;11.50;100.00
7824;BME280;3957;48.61947800;9.05303100;2023-08-06T02:57:34;95222.09;;;11.50;100.00
7824;BME280;3957;48.61947800;9.05303100;2023-08-06T02:58:36;95228.16;;;11.45;100.00
7824;BME280;3957;48.61947800;9.05303100;2023-08-06T02:59:58;95229.81;;;11.46;100.00
7824;BME280;3957;48.61947800;9.05303100;2023-08-06T03:01:04;95227.94;;;11.47;100.00
7824;BME280;3957;48.61947800;9.05303100;2023-08-06T03:02:14;95222.34;;;11.48;100.00
7824;BME280;3957;48.61947800;9.05303100;2023-08-06T03:03:37;95235.75;;;11.48;100.00
7824;BME280;3957;48.61947800;9.05303100;2023-08-06T03:04:40;95218.72;;;11.54;100.00
7824;BME280;3957;48.61947800;9.05303100;2023-08-06T03:05:52;95218.53;;;11.56;100.00
7824;BME280;3957;48.61947800;9.05303100;2023-08-06T03:06:59;95209.19;;;11.58;100.00
7824;BME280;3957;48.61947800;9.05303100;2023-08-06T03:08:09;95207.66;;;11.63;100.00
7824;BME280;3957;48.61947800;9.05303100;2023-08-06T03:09:11;95205.81;;;11.63;100.00
7824;BME280;3957;48.61947800;9.05303100;2023-08-06T03:10:13;95208.03;;;11.66;100.00
7824;BME280;3957;48.61947800;9.05303100;2023-08-06T03:11:16;95201.88;;;11.66;100.00
7824;BME280;3957;48.61947800;9.05303100;2023-08-06T03:12:18;95204.06;;;11.69;100.00
7824;BME280;3957;48.61947800;9.05303100;2023-08-06T03:13:21;95201.50;;;11.62;100.00
7824;BME280;3957;48.61947800;9.05303100;2023-08-06T03:14:23;95206.16;;;11.67;100.00
7824;BME280;3957;48.61947800;9.05303100;2023-08-06T03:15:25;95203.13;;;11.63;100.00
7824;BME280;3957;48.61947800;9.05303100;2023-08-06T03:16:27;95199.88;;;11.61;100.00
7824;BME280;3957;48.61947800;9.05303100;2023-08-06T03:17:29;95196.63;;;11.59;100.00
7824;BME280;3957;48.61947800;9.05303100;2023-08-06T03:18:31;95200.34;;;11.58;100.00
7824;BME280;3957;48.61947800;9.05303100;2023-08-06T03:19:36;95203.25;;;11.56;100.00
7824;BME280;3957;48.61947800;9.05303100;2023-08-06T03:20:38;95198.13;;;11.55;100.00
7824;BME280;3957;48.61947800;9.05303100;2023-08-06T03:21:40;95197.53;;;11.53;100.00
7824;BME280;3957;48.61947800;9.05303100;2023-08-06T03:22:42;95201.28;;;11.52;100.00
7824;BME280;3957;48.61947800;9.05303100;2023-08-06T03:23:46;95197.75;;;11.51;100.00
7824;BME280;3957;48.61947800;9.05303100;2023-08-06T03:24:50;95197.88;;;11.56;100.00
7824;BME280;3957;48.61947800;9.05303100;2023-08-06T03:25:54;95197.28;;;11.54;100.00
7824;BME280;3957;48.61947800;9.05303100;2023-08-06T03:26:56;95206.38;;;11.65;100.00
7824;BME280;3957;48.61947800;9.05303100;2023-08-06T03:27:58;95200.59;;;11.68;100.00
7824;BME280;3957;48.61947800;9.05303100;2023-08-06T03:29:00;95203.59;;;11.72;100.00
7824;BME280;3957;48.61947800;9.05303100;2023-08-06T03:30:05;95201.53;;;11.74;100.00
7824;BME280;3957;48.61947800;9.05303100;2023-08-06T03:31:07;95196.41;;;11.72;100.00
7824;BME280;3957;48.61947800;9.05303100;2023-08-06T03:32:14;95206.16;;;11.79;100.00
7824;BME280;3957;48.61947800;9.05303100;2023-08-06T03:33:16;95205.38;;;11.78;100.00
7824;BME280;3957;48.61947800;9.05303100;2023-08-06T03:34:19;95217.03;;;11.84;100.00
7824;BME280;3957;48.61947800;9.05303100;2023-08-06T03:35:22;95214.34;;;11.84;100.00
7824;BME280;3957;48.61947800;9.05303100;2023-08-06T03:36:24;95218.53;;;11.80;100.00
7824;BME280;3957;48.61947800;9.05303100;2023-08-06T03:37:26;95214.34;;;11.84;100.00
7824;BME280;3957;48.61947800;9.05303100;2023-08-06T03:38:28;95216.66;;;11.80;100.00
7824;BME280;3957;48.61947800;9.05303100;2023-08-06T03:39:30;95207.94;;;11.85;100.00
7824;BME280;3957;48.61947800;9.05303100;2023-08-06T03:40:31;95215.38;;;11.83;100.00
7824;BME280;3957;48.61947800;9.05303100;2023-08-06T03:41:33;95221.53;;;11.83;100.00
7824;BME280;3957;48.61947800;9.05303100;2023-08-06T03:42:35;95220.53;;;11.96;100.00
7824;BME280;3957;48.61947800;9.05303100;2023-08-06T03:43:37;95214.00;;;11.92;100.00
7824;BME280;3957;48.61947800;9.05303100;2023-08-06T03:44:42;95219.13;;;11.94;100.00
7824;BME280;3957;48.61947800;9.05303100;2023-08-06T03:45:45;95214.00;;;11.92;100.00
7824;BME280;3957;48.61947800;9.05303100;2023-08-06T03:46:46;95213.38;;;11.90;100.00
7824;BME280;3957;48.61947800;9.05303100;2023-08-06T03:47:48;95213.53;;;11.95;100.00
7824;BME280;3957;48.61947800;9.05303100;2023-08-06T03:48:51;95207.13;;;11.96;100.00
7824;BME280;3957;48.61947800;9.05303100;2023-08-06T03:49:53;95209.59;;;11.98;100.00
7824;BME280;3957;48.61947800;9.05303100;2023-08-06T03:50:56;95203.50;;;12.02;100.00
7824;BME280;3957;48.61947800;9.05303100;2023-08-06T03:51:59;95203.50;;;12.02;100.00
7824;BME280;3957;48.61947800;9.05303100;2023-08-06T03:53:01;95195.34;;;12.09;100.00
7824;BME280;3957;48.61947800;9.05303100;2023-08-06T03:54:03;95196.63;;;12.06;100.00
7824;BME280;3957;48.61947800;9.05303100;2023-08-06T03:55:05;95191.03;;;12.08;100.00
7824;BME280;3957;48.61947800;9.05303100;2023-08-06T03:56:06;95195.34;;;12.09;100.00
7824;BME280;3957;48.61947800;9.05303100;2023-08-06T03:57:09;95196.16;;;12.10;100.00
7824;BME280;3957;48.61947800;9.05303100;2023-08-06T03:58:12;95185.34;;;12.04;100.00
7824;BME280;3957;48.61947800;9.05303100;2023-08-06T03:59:14;95182.97;;;12.08;100.00
7824;BME280;3957;48.61947800;9.05303100;2023-08-06T04:00:16;95182.41;;;12.06;100.00
7824;BME280;3957;48.61947800;9.05303100;2023-08-06T04:01:22;95187.53;;;12.19;100.00
7824;BME280;3957;48.61947800;9.05303100;2023-08-06T04:02:24;95192.53;;;12.16;100.00
7824;BME280;3957;48.61947800;9.05303100;2023-08-06T04:03:26;95191.13;;;12.13;100.00
7824;BME280;3957;48.61947800;9.05303100;2023-08-06T04:04:28;95202.66;;;12.14;100.00
7824;BME280;3957;48.61947800;9.05303100;2023-08-06T04:05:31;95208.75;;;12.09;100.00
7824;BME280;3957;48.61947800;9.05303100;2023-08-06T04:06:33;95201.50;;;12.10;100.00
7824;BME280;3957;48.61947800;9.05303100;2023-08-06T04:07:35;95208.63;;;12.04;100.00
7824;BME280;3957;48.61947800;9.05303100;2023-08-06T04:08:36;95208.06;;;12.02;100.00
7824;BME280;3957;48.61947800;9.05303100;2023-08-06T04:09:58;95212.75;;;11.95;100.00
7824;BME280;3957;48.61947800;9.05303100;2023-08-06T04:11:00;95209.91;;;11.89;100.00
7824;BME280;3957;48.61947800;9.05303100;2023-08-06T04:12:01;95203.72;;;11.77;100.00
7824;BME280;3957;48.61947800;9.05303100;2023-08-06T04:13:04;95206.88;;;11.74;100.00
7824;BME280;3957;48.61947800;9.05303100;2023-08-06T04:14:06;95209.31;;;11.64;100.00
7824;BME280;3957;48.61947800;9.05303100;2023-08-06T04:15:07;95215.25;;;11.54;100.00
7824;BME280;3957;48.61947800;9.05303100;2023-08-06T04:16:09;95206.63;;;11.52;100.00
7824;BME280;3957;48.61947800;9.05303100;2023-08-06T04:17:10;95205.56;;;11.53;100.00
7824;BME280;3957;48.61947800;9.05303100;2023-08-06T04:18:12;95207.31;;;11.47;100.00
7824;BME280;3957;48.61947800;9.05303100;2023-08-06T04:19:13;95216.41;;;11.46;100.00
7824;BME280;3957;48.61947800;9.05303100;2023-08-06T04:20:15;95209.75;;;11.37;100.00
7824;BME280;3957;48.61947800;9.05303100;2023-08-06T04:21:17;95213.56;;;11.29;100.00
7824;BME280;3957;48.61947800;9.05303100;2023-08-06T04:22:19;95204.88;;;11.34;100.00
7824;BME280;3957;48.61947800;9.05303100;2023-08-06T04:23:21;95212.06;;;11.33;100.00
7824;BME280;3957;48.61947800;9.05303100;2023-08-06T04:24:22;95214.16;;;11.31;100.00
7824;BME280;3957;48.61947800;9.05303100;2023-08-06T04:25:24;95209.03;;;11.30;100.00
7824;BME280;3957;48.61947800;9.05303100;2023-08-06T04:26:25;95216.00;;;11.31;100.00
7824;BME280;3957;48.61947800;9.05303100;2023-08-06T04:27:27;95229.63;;;11.29;100.00
7824;BME280;3957;48.61947800;9.05303100;2023-08-06T04:28:29;95229.06;;;11.27;100.00
7824;BME280;3957;48.61947800;9.05303100;2023-08-06T04:29:31;95239.16;;;11.25;100.00
7824;BME280;3957;48.61947800;9.05303100;2023-08-06T04:30:33;95233.59;;;11.27;100.00
7824;BME280;3957;48.61947800;9.05303100;2023-08-06T04:31:36;95234.66;;;11.26;100.00
7824;BME280;3957;48.61947800;9.05303100;2023-08-06T04:32:37;95240.34;;;11.29;100.00
7824;BME280;3957;48.61947800;9.05303100;2023-08-06T04:33:40;95237.34;;;11.26;100.00
7824;BME280;3957;48.61947800;9.05303100;2023-08-06T04:34:44;95234.66;;;11.26;100.00
7824;BME280;3957;48.61947800;9.05303100;2023-08-06T04:35:46;95234.28;;;11.22;100.00
7824;BME280;3957;48.61947800;9.05303100;2023-08-06T04:36:48;95236.16;;;11.21;100.00
7824;BME280;3957;48.61947800;9.05303100;2023-08-06T04:37:50;95232.88;;;11.19;100.00
7824;BME280;3957;48.61947800;9.05303100;2023-08-06T04:38:51;95230.91;;;11.15;100.00
7824;BME280;3957;48.61947800;9.05303100;2023-08-06T04:39:53;95232.72;;;11.14;100.00
7824;BME280;3957;48.61947800;9.05303100;2023-08-06T04:40:55;95239.16;;;11.13;100.00
7824;BME280;3957;48.61947800;9.05303100;2023-08-06T04:41:58;95232.63;;;11.09;100.00
7824;BME280;3957;48.61947800;9.05303100;2023-08-06T04:43:01;95242.50;;;11.09;100.00
7824;BME280;3957;48.61947800;9.05303100;2023-08-06T04:44:06;95243.56;;;11.08;100.00
7824;BME280;3957;48.61947800;9.05303100;2023-08-06T04:45:07;95246.25;;;11.08;100.00
7824;BME280;3957;48.61947800;9.05303100;2023-08-06T04:46:09;95238.56;;;11.11;100.00
7824;BME280;3957;48.61947800;9.05303100;2023-08-06T04:47:11;95243.91;;;11.11;100.00
7824;BME280;3957;48.61947800;9.05303100;2023-08-06T04:48:13;95240.28;;;11.05;100.00
7824;BME280;3957;48.61947800;9.05303100;2023-08-06T04:49:15;95239.81;;;11.09;100.00
7824;BME280;3957;48.61947800;9.05303100;2023-08-06T04:50:16;95242.00;;;11.00;100.00
7824;BME280;3957;48.61947800;9.05303100;2023-08-06T04:51:18;95246.09;;;11.02;100.00
7824;BME280;3957;48.61947800;9.05303100;2023-08-06T04:52:19;95244.69;;;11.00;100.00
7824;BME280;3957;48.61947800;9.05303100;2023-08-06T04:53:21;95245.72;;;10.99;100.00
7824;BME280;3957;48.61947800;9.05303100;2023-08-06T04:54:22;95246.09;;;11.02;100.00
7824;BME280;3957;48.61947800;9.05303100;2023-08-06T04:55:24;95250.41;;;11.03;100.00
7824;BME280;3957;48.61947800;9.05303100;2023-08-06T04:56:25;95253.28;;;11.02;100.00
7824;BME280;3957;48.61947800;9.05303100;2023-08-06T04:57:27;95254.69;;;11.04;100.00
7824;BME280;3957;48.61947800;9.05303100;2023-08-06T04:58:28;95250.41;;;11.03;100.00
7824;BME280;3957;48.61947800;9.05303100;2023-08-06T04:59:30;95245.50;;;11.00;100.00
7824;BME280;3957;48.61947800;9.05303100;2023-08-06T05:00:32;95249.72;;;11.08;100.00